sensor_id;sensor_type;location;lat;lon;timestamp;P1;durP1;ratioP1;P2;durP2;ratioP2
4885;SDS011;2457;51.788;6.136;2022-07-10T00:00:08;4.50;;;1.37;;
4885;SDS011;2457;51.788;6.136;2022-07-10T00:02:36;4.50;;;1.03;;
4885;SDS011;2457;51.788;6.136;2022-07-10T00:05:04;3.20;;;1.10;;
4885;SDS011;2457;51.788;6.136;2022-07-10T00:07:31;4.70;;;1.20;;
4885;SDS011;2457;51.788;6.136;2022-07-10T00:09:59;4.97;;;1.43;;
4885;SDS011;2457;51.788;6.136;2022-07-10T00:12:26;3.80;;;1.03;;
4885;SDS011;2457;51.788;6.136;2022-07-10T00:14:54;4.07;;;1.27;;
4885;SDS011;2457;51.788;6.136;2022-07-10T00:17:21;7.03;;;1.07;;
4885;SDS011;2457;51.788;6.136;2022-07-10T00:19:48;4.40;;;1.40;;
4885;SDS011;2457;51.788;6.136;2022-07-10T00:22:16;8.67;;;1.57;;
4885;SDS011;2457;51.788;6.136;2022-07-10T00:24:43;4.13;;;1.53;;
4885;SDS011;2457;51.788;6.136;2022-07-10T00:27:10;4.57;;;1.30;;
4885;SDS011;2457;51.788;6.136;2022-07-10T00:29:37;3.97;;;1.20;;
4885;SDS011;2457;51.788;6.136;2022-07-10T00:32:05;5.97;;;1.30;;
4885;SDS011;2457;51.788;6.136;2022-07-10T00:34:32;11.27;;;1.40;;
4885;SDS011;2457;51.788;6.136;2022-07-10T00:37:01;6.60;;;1.20;;
4885;SDS011;2457;51.788;6.136;2022-07-10T00:39:29;4.63;;;1.20;;
4885;SDS011;2457;51.788;6.136;2022-07-10T00:42:14;5.10;;;1.60;;
4885;SDS011;2457;51.788;6.136;2022-07-10T00:44:38;4.37;;;1.20;;
4885;SDS011;2457;51.788;6.136;2022-07-10T00:47:06;4.87;;;1.40;;
4885;SDS011;2457;51.788;6.136;2022-07-10T00:49:34;5.40;;;1.30;;
4885;SDS011;2457;51.788;6.136;2022-07-10T00:52:03;5.87;;;1.30;;
4885;SDS011;2457;51.788;6.136;2022-07-10T00:54:31;7.87;;;1.77;;
4885;SDS011;2457;51.788;6.136;2022-07-10T00:56:58;4.60;;;1.40;;
4885;SDS011;2457;51.788;6.136;2022-07-10T00:59:26;3.60;;;1.30;;
4885;SDS011;2457;51.788;6.136;2022-07-10T01:01:54;5.60;;;1.40;;
4885;SDS011;2457;51.788;6.136;2022-07-10T01:04:22;6.70;;;1.40;;
4885;SDS011;2457;51.788;6.136;2022-07-10T01:06:49;7.47;;;1.53;;
4885;SDS011;2457;51.788;6.136;2022-07-10T01:09:16;4.03;;;1.27;;
4885;SDS011;2457;51.788;6.136;2022-07-10T01:11:44;4.53;;;1.50;;
4885;SDS011;2457;51.788;6.136;2022-07-10T01:14:11;5.00;;;1.40;;
4885;SDS011;2457;51.788;6.136;2022-07-10T01:16:39;4.67;;;1.03;;
4885;SDS011;2457;51.788;6.136;2022-07-10T01:19:06;4.90;;;1.77;;
4885;SDS011;2457;51.788;6.136;2022-07-10T01:21:34;4.10;;;1.20;;
4885;SDS011;2457;51.788;6.136;2022-07-10T01:24:06;4.80;;;1.20;;
4885;SDS011;2457;51.788;6.136;2022-07-10T01:26:35;4.40;;;1.53;;
4885;SDS011;2457;51.788;6.136;2022-07-10T01:29:06;7.53;;;1.40;;
4885;SDS011;2457;51.788;6.136;2022-07-10T01:31:33;5.23;;;1.57;;
4885;SDS011;2457;51.788;6.136;2022-07-10T01:34:01;4.23;;;1.40;;
4885;SDS011;2457;51.788;6.136;2022-07-10T01:36:29;5.80;;;1.30;;
4885;SDS011;2457;51.788;6.136;2022-07-10T01:38:56;5.90;;;1.50;;
4885;SDS011;2457;51.788;6.136;2022-07-10T01:41:23;4.23;;;1.10;;
4885;SDS011;2457;51.788;6.136;2022-07-10T01:43:51;5.73;;;1.30;;
4885;SDS011;2457;51.788;6.136;2022-07-10T01:46:19;4.60;;;1.33;;
4885;SDS011;2457;51.788;6.136;2022-07-10T01:48:46;4.00;;;1.23;;
4885;SDS011;2457;51.788;6.136;2022-07-10T01:51:14;4.67;;;1.43;;
4885;SDS011;2457;51.788;6.136;2022-07-10T01:53:41;4.90;;;1.10;;
4885;SDS011;2457;51.788;6.136;2022-07-10T01:56:10;4.67;;;1.10;;
4885;SDS011;2457;51.788;6.136;2022-07-10T01:58:38;5.50;;;1.50;;
4885;SDS011;2457;51.788;6.136;2022-07-10T02:01:05;4.30;;;1.10;;
4885;SDS011;2457;51.788;6.136;2022-07-10T02:03:32;4.13;;;1.20;;
4885;SDS011;2457;51.788;6.136;2022-07-10T02:06:17;5.63;;;1.43;;
4885;SDS011;2457;51.788;6.136;2022-07-10T02:08:45;6.23;;;1.50;;
4885;SDS011;2457;51.788;6.136;2022-07-10T02:11:12;4.80;;;1.47;;
4885;SDS011;2457;51.788;6.136;2022-07-10T02:13:39;4.20;;;1.20;;
4885;SDS011;2457;51.788;6.136;2022-07-10T02:16:07;3.33;;;1.03;;
4885;SDS011;2457;51.788;6.136;2022-07-10T02:18:34;4.10;;;1.40;;
4885;SDS011;2457;51.788;6.136;2022-07-10T02:21:01;4.60;;;1.13;;
4885;SDS011;2457;51.788;6.136;2022-07-10T02:23:28;4.77;;;1.40;;
4885;SDS011;2457;51.788;6.136;2022-07-10T02:25:56;5.83;;;1.47;;
4885;SDS011;2457;51.788;6.136;2022-07-10T02:28:23;4.83;;;1.43;;
4885;SDS011;2457;51.788;6.136;2022-07-10T02:30:50;7.17;;;1.40;;
4885;SDS011;2457;51.788;6.136;2022-07-10T02:33:17;4.00;;;1.30;;
4885;SDS011;2457;51.788;6.136;2022-07-10T02:35:45;6.93;;;1.30;;
4885;SDS011;2457;51.788;6.136;2022-07-10T02:38:12;8.00;;;1.63;;
4885;SDS011;2457;51.788;6.136;2022-07-10T02:40:39;6.03;;;1.20;;
4885;SDS011;2457;51.788;6.136;2022-07-10T02:43:06;2.70;;;1.00;;
4885;SDS011;2457;51.788;6.136;2022-07-10T02:45:34;5.03;;;1.30;;
4885;SDS011;2457;51.788;6.136;2022-07-10T02:48:01;6.30;;;1.40;;
4885;SDS011;2457;51.788;6.136;2022-07-10T02:50:29;2.70;;;1.03;;
4885;SDS011;2457;51.788;6.136;2022-07-10T02:52:56;3.03;;;1.00;;
4885;SDS011;2457;51.788;6.136;2022-07-10T02:55:23;4.70;;;1.30;;
4885;SDS011;2457;51.788;6.136;2022-07-10T02:57:50;3.70;;;1.30;;
4885;SDS011;2457;51.788;6.136;2022-07-10T03:00:18;3.73;;;1.37;;
4885;SDS011;2457;51.788;6.136;2022-07-10T03:02:45;3.53;;;1.30;;
4885;SDS011;2457;51.788;6.136;2022-07-10T03:05:13;4.83;;;1.33;;
4885;SDS011;2457;51.788;6.136;2022-07-10T03:07:40;7.90;;;1.47;;
4885;SDS011;2457;51.788;6.136;2022-07-10T03:10:07;5.07;;;1.43;;
4885;SDS011;2457;51.788;6.136;2022-07-10T03:12:35;6.30;;;1.43;;
4885;SDS011;2457;51.788;6.136;2022-07-10T03:15:03;5.03;;;1.37;;
4885;SDS011;2457;51.788;6.136;2022-07-10T03:17:31;5.90;;;1.23;;
4885;SDS011;2457;51.788;6.136;2022-07-10T03:19:58;7.43;;;1.50;;
4885;SDS011;2457;51.788;6.136;2022-07-10T03:22:25;5.00;;;1.30;;
4885;SDS011;2457;51.788;6.136;2022-07-10T03:24:54;6.77;;;1.30;;
4885;SDS011;2457;51.788;6.136;2022-07-10T03:27:21;5.40;;;1.50;;
4885;SDS011;2457;51.788;6.136;2022-07-10T03:29:49;3.33;;;1.10;;
4885;SDS011;2457;51.788;6.136;2022-07-10T03:32:16;5.80;;;1.50;;
4885;SDS011;2457;51.788;6.136;2022-07-10T03:34:43;4.37;;;1.20;;
4885;SDS011;2457;51.788;6.136;2022-07-10T03:37:10;6.97;;;1.40;;
4885;SDS011;2457;51.788;6.136;2022-07-10T03:39:38;3.80;;;1.40;;
4885;SDS011;2457;51.788;6.136;2022-07-10T03:42:05;3.57;;;1.43;;
4885;SDS011;2457;51.788;6.136;2022-07-10T03:44:32;6.63;;;1.13;;
4885;SDS011;2457;51.788;6.136;2022-07-10T03:47:00;4.87;;;1.40;;
4885;SDS011;2457;51.788;6.136;2022-07-10T03:49:28;5.33;;;1.40;;
4885;SDS011;2457;51.788;6.136;2022-07-10T03:51:58;3.90;;;1.30;;
4885;SDS011;2457;51.788;6.136;2022-07-10T03:54:24;5.97;;;1.53;;
4885;SDS011;2457;51.788;6.136;2022-07-10T03:56:51;6.17;;;1.40;;
4885;SDS011;2457;51.788;6.136;2022-07-10T03:59:36;4.60;;;1.10;;
4885;SDS011;2457;51.788;6.136;2022-07-10T04:02:04;5.03;;;1.27;;
4885;SDS011;2457;51.788;6.136;2022-07-10T04:04:31;4.30;;;1.20;;
4885;SDS011;2457;51.788;6.136;2022-07-10T04:06:58;5.67;;;1.40;;
4885;SDS011;2457;51.788;6.136;2022-07-10T04:09:25;5.83;;;1.37;;
4885;SDS011;2457;51.788;6.136;2022-07-10T04:11:53;5.40;;;1.43;;
4885;SDS011;2457;51.788;6.136;2022-07-10T04:14:20;8.60;;;1.40;;
4885;SDS011;2457;51.788;6.136;2022-07-10T04:16:47;5.17;;;1.40;;
4885;SDS011;2457;51.788;6.136;2022-07-10T04:19:15;4.03;;;1.30;;
4885;SDS011;2457;51.788;6.136;2022-07-10T04:21:42;3.57;;;1.00;;
4885;SDS011;2457;51.788;6.136;2022-07-10T04:24:09;7.63;;;1.40;;
4885;SDS011;2457;51.788;6.136;2022-07-10T04:26:36;5.00;;;1.33;;
4885;SDS011;2457;51.788;6.136;2022-07-10T04:29:04;3.90;;;1.30;;
4885;SDS011;2457;51.788;6.136;2022-07-10T04:31:31;5.73;;;1.20;;
4885;SDS011;2457;51.788;6.136;2022-07-10T04:33:58;14.73;;;1.80;;
4885;SDS011;2457;51.788;6.136;2022-07-10T04:36:26;3.67;;;1.17;;
4885;SDS011;2457;51.788;6.136;2022-07-10T04:38:53;5.30;;;1.90;;
4885;SDS011;2457;51.788;6.136;2022-07-10T04:41:20;6.73;;;1.33;;
4885;SDS011;2457;51.788;6.136;2022-07-10T04:43:47;4.83;;;1.17;;
4885;SDS011;2457;51.788;6.136;2022-07-10T04:46:14;6.33;;;1.37;;
4885;SDS011;2457;51.788;6.136;2022-07-10T04:48:42;8.10;;;1.20;;
4885;SDS011;2457;51.788;6.136;2022-07-10T04:51:09;4.10;;;1.37;;
4885;SDS011;2457;51.788;6.136;2022-07-10T04:53:36;4.00;;;1.20;;
4885;SDS011;2457;51.788;6.136;2022-07-10T04:56:04;7.63;;;1.43;;
4885;SDS011;2457;51.788;6.136;2022-07-10T04:58:31;4.37;;;1.13;;
4885;SDS011;2457;51.788;6.136;2022-07-10T05:00:58;4.73;;;1.20;;
4885;SDS011;2457;51.788;6.136;2022-07-10T05:03:25;10.70;;;1.50;;
4885;SDS011;2457;51.788;6.136;2022-07-10T05:05:53;8.77;;;1.50;;
4885;SDS011;2457;51.788;6.136;2022-07-10T05:08:20;5.17;;;1.50;;
4885;SDS011;2457;51.788;6.136;2022-07-10T05:10:47;4.60;;;1.30;;
4885;SDS011;2457;51.788;6.136;2022-07-10T05:13:14;10.60;;;1.30;;
4885;SDS011;2457;51.788;6.136;2022-07-10T05:15:42;6.73;;;1.30;;
4885;SDS011;2457;51.788;6.136;2022-07-10T05:18:09;4.30;;;1.57;;
4885;SDS011;2457;51.788;6.136;2022-07-10T05:20:36;5.73;;;1.33;;
4885;SDS011;2457;51.788;6.136;2022-07-10T05:23:05;4.30;;;1.73;;
4885;SDS011;2457;51.788;6.136;2022-07-10T05:25:33;3.80;;;1.20;;
4885;SDS011;2457;51.788;6.136;2022-07-10T05:28:00;6.13;;;1.50;;
4885;SDS011;2457;51.788;6.136;2022-07-10T05:30:28;4.43;;;1.33;;
4885;SDS011;2457;51.788;6.136;2022-07-10T05:32:55;8.07;;;1.53;;
4885;SDS011;2457;51.788;6.136;2022-07-10T05:35:22;8.55;;;1.70;;
4885;SDS011;2457;51.788;6.136;2022-07-10T05:37:49;8.90;;;1.27;;
4885;SDS011;2457;51.788;6.136;2022-07-10T05:40:17;4.63;;;1.40;;
4885;SDS011;2457;51.788;6.136;2022-07-10T05:42:44;5.80;;;1.27;;
4885;SDS011;2457;51.788;6.136;2022-07-10T05:45:11;7.00;;;1.20;;
4885;SDS011;2457;51.788;6.136;2022-07-10T05:47:38;6.73;;;1.50;;
4885;SDS011;2457;51.788;6.136;2022-07-10T05:50:06;5.63;;;1.30;;
4885;SDS011;2457;51.788;6.136;2022-07-10T05:52:33;8.10;;;1.43;;
4885;SDS011;2457;51.788;6.136;2022-07-10T05:55:00;8.33;;;1.20;;
4885;SDS011;2457;51.788;6.136;2022-07-10T05:57:29;5.93;;;1.50;;
4885;SDS011;2457;51.788;6.136;2022-07-10T05:59:57;6.50;;;1.50;;
4885;SDS011;2457;51.788;6.136;2022-07-10T06:02:25;3.83;;;1.30;;
4885;SDS011;2457;51.788;6.136;2022-07-10T06:04:52;9.37;;;1.33;;
4885;SDS011;2457;51.788;6.136;2022-07-10T06:07:19;7.30;;;1.30;;
4885;SDS011;2457;51.788;6.136;2022-07-10T06:09:46;5.70;;;1.37;;
4885;SDS011;2457;51.788;6.136;2022-07-10T06:12:14;6.47;;;1.23;;
4885;SDS011;2457;51.788;6.136;2022-07-10T06:14:43;6.33;;;1.37;;
4885;SDS011;2457;51.788;6.136;2022-07-10T06:17:10;5.50;;;1.70;;
4885;SDS011;2457;51.788;6.136;2022-07-10T06:19:37;5.20;;;1.60;;
4885;SDS011;2457;51.788;6.136;2022-07-10T06:22:05;5.13;;;1.40;;
4885;SDS011;2457;51.788;6.136;2022-07-10T06:24:50;5.97;;;1.40;;
4885;SDS011;2457;51.788;6.136;2022-07-10T06:27:17;4.73;;;1.30;;
4885;SDS011;2457;51.788;6.136;2022-07-10T06:29:44;5.73;;;1.30;;
4885;SDS011;2457;51.788;6.136;2022-07-10T06:32:12;5.37;;;1.43;;
4885;SDS011;2457;51.788;6.136;2022-07-10T06:34:39;8.20;;;1.77;;
4885;SDS011;2457;51.788;6.136;2022-07-10T06:37:06;5.17;;;1.30;;
4885;SDS011;2457;51.788;6.136;2022-07-10T06:39:34;3.13;;;1.20;;
4885;SDS011;2457;51.788;6.136;2022-07-10T06:42:02;7.30;;;1.50;;
4885;SDS011;2457;51.788;6.136;2022-07-10T06:44:30;10.27;;;1.53;;
4885;SDS011;2457;51.788;6.136;2022-07-10T06:46:58;5.50;;;1.47;;
4885;SDS011;2457;51.788;6.136;2022-07-10T06:49:45;3.87;;;1.10;;
4885;SDS011;2457;51.788;6.136;2022-07-10T06:52:14;6.10;;;1.27;;
4885;SDS011;2457;51.788;6.136;2022-07-10T06:54:42;5.17;;;1.60;;
4885;SDS011;2457;51.788;6.136;2022-07-10T06:57:09;5.03;;;1.20;;
4885;SDS011;2457;51.788;6.136;2022-07-10T06:59:36;6.70;;;1.67;;
4885;SDS011;2457;51.788;6.136;2022-07-10T07:02:04;8.90;;;1.70;;
4885;SDS011;2457;51.788;6.136;2022-07-10T07:04:31;8.83;;;1.50;;
4885;SDS011;2457;51.788;6.136;2022-07-10T07:06:59;4.73;;;1.13;;
4885;SDS011;2457;51.788;6.136;2022-07-10T07:09:26;7.10;;;1.80;;
4885;SDS011;2457;51.788;6.136;2022-07-10T07:11:53;7.20;;;1.40;;
4885;SDS011;2457;51.788;6.136;2022-07-10T07:14:21;5.47;;;1.20;;
4885;SDS011;2457;51.788;6.136;2022-07-10T07:16:48;5.37;;;1.17;;
4885;SDS011;2457;51.788;6.136;2022-07-10T07:19:17;7.83;;;1.80;;
4885;SDS011;2457;51.788;6.136;2022-07-10T07:21:44;6.33;;;1.50;;
4885;SDS011;2457;51.788;6.136;2022-07-10T07:24:29;8.50;;;1.90;;
4885;SDS011;2457;51.788;6.136;2022-07-10T07:26:57;5.27;;;1.40;;
4885;SDS011;2457;51.788;6.136;2022-07-10T07:29:24;4.73;;;1.20;;
4885;SDS011;2457;51.788;6.136;2022-07-10T07:31:51;9.33;;;1.70;;
4885;SDS011;2457;51.788;6.136;2022-07-10T07:34:20;3.83;;;1.40;;
4885;SDS011;2457;51.788;6.136;2022-07-10T07:36:47;5.07;;;1.47;;
4885;SDS011;2457;51.788;6.136;2022-07-10T07:39:14;8.47;;;1.67;;
4885;SDS011;2457;51.788;6.136;2022-07-10T07:41:42;8.93;;;1.73;;
4885;SDS011;2457;51.788;6.136;2022-07-10T07:44:09;8.27;;;1.83;;
4885;SDS011;2457;51.788;6.136;2022-07-10T07:46:38;5.97;;;1.87;;
4885;SDS011;2457;51.788;6.136;2022-07-10T07:49:05;7.33;;;2.10;;
4885;SDS011;2457;51.788;6.136;2022-07-10T07:51:32;7.20;;;2.27;;
4885;SDS011;2457;51.788;6.136;2022-07-10T07:54:00;7.30;;;2.07;;
4885;SDS011;2457;51.788;6.136;2022-07-10T07:56:27;5.70;;;1.60;;
4885;SDS011;2457;51.788;6.136;2022-07-10T07:58:54;7.93;;;2.07;;
4885;SDS011;2457;51.788;6.136;2022-07-10T08:01:22;6.37;;;1.70;;
4885;SDS011;2457;51.788;6.136;2022-07-10T08:03:49;6.50;;;1.63;;
4885;SDS011;2457;51.788;6.136;2022-07-10T08:06:17;4.93;;;1.40;;
4885;SDS011;2457;51.788;6.136;2022-07-10T08:08:44;5.73;;;1.40;;
4885;SDS011;2457;51.788;6.136;2022-07-10T08:11:11;6.70;;;1.60;;
4885;SDS011;2457;51.788;6.136;2022-07-10T08:13:39;9.80;;;1.60;;
4885;SDS011;2457;51.788;6.136;2022-07-10T08:16:06;5.57;;;1.60;;
4885;SDS011;2457;51.788;6.136;2022-07-10T08:18:33;6.20;;;2.20;;
4885;SDS011;2457;51.788;6.136;2022-07-10T08:21:00;4.37;;;1.57;;
4885;SDS011;2457;51.788;6.136;2022-07-10T08:23:28;8.27;;;1.80;;
4885;SDS011;2457;51.788;6.136;2022-07-10T08:25:55;5.27;;;1.50;;
4885;SDS011;2457;51.788;6.136;2022-07-10T08:28:22;5.47;;;1.77;;
4885;SDS011;2457;51.788;6.136;2022-07-10T08:30:49;5.73;;;1.50;;
4885;SDS011;2457;51.788;6.136;2022-07-10T08:33:17;6.80;;;1.57;;
4885;SDS011;2457;51.788;6.136;2022-07-10T08:35:44;12.63;;;1.83;;
4885;SDS011;2457;51.788;6.136;2022-07-10T08:38:12;7.23;;;1.70;;
4885;SDS011;2457;51.788;6.136;2022-07-10T08:40:39;8.80;;;1.90;;
4885;SDS011;2457;51.788;6.136;2022-07-10T08:43:07;4.60;;;1.40;;
4885;SDS011;2457;51.788;6.136;2022-07-10T08:45:35;8.17;;;1.80;;
4885;SDS011;2457;51.788;6.136;2022-07-10T08:48:02;5.27;;;1.50;;
4885;SDS011;2457;51.788;6.136;2022-07-10T08:50:33;5.60;;;1.53;;
4885;SDS011;2457;51.788;6.136;2022-07-10T08:53:36;6.80;;;1.40;;
4885;SDS011;2457;51.788;6.136;2022-07-10T08:55:37;3.67;;;1.20;;
4885;SDS011;2457;51.788;6.136;2022-07-10T08:58:04;10.90;;;1.80;;
4885;SDS011;2457;51.788;6.136;2022-07-10T09:00:32;7.00;;;1.73;;
4885;SDS011;2457;51.788;6.136;2022-07-10T09:03:00;6.90;;;1.80;;
4885;SDS011;2457;51.788;6.136;2022-07-10T09:05:27;6.00;;;2.00;;
4885;SDS011;2457;51.788;6.136;2022-07-10T09:07:54;7.47;;;2.00;;
4885;SDS011;2457;51.788;6.136;2022-07-10T09:10:25;3.70;;;1.30;;
4885;SDS011;2457;51.788;6.136;2022-07-10T09:12:57;4.10;;;1.40;;
4885;SDS011;2457;51.788;6.136;2022-07-10T09:15:25;6.43;;;1.57;;
4885;SDS011;2457;51.788;6.136;2022-07-10T09:17:59;5.87;;;1.50;;
4885;SDS011;2457;51.788;6.136;2022-07-10T09:22:59;3.73;;;1.27;;
4885;SDS011;2457;51.788;6.136;2022-07-10T09:25:32;6.27;;;1.40;;
4885;SDS011;2457;51.788;6.136;2022-07-10T09:28:00;4.43;;;1.40;;
4885;SDS011;2457;51.788;6.136;2022-07-10T09:30:33;4.00;;;1.10;;
4885;SDS011;2457;51.788;6.136;2022-07-10T09:41:16;7.93;;;1.13;;
4885;SDS011;2457;51.788;6.136;2022-07-10T09:43:46;5.80;;;1.17;;
4885;SDS011;2457;51.788;6.136;2022-07-10T09:46:14;7.93;;;1.43;;
4885;SDS011;2457;51.788;6.136;2022-07-10T09:48:41;5.30;;;1.37;;
4885;SDS011;2457;51.788;6.136;2022-07-10T09:51:09;3.73;;;1.20;;
4885;SDS011;2457;51.788;6.136;2022-07-10T09:53:37;5.30;;;1.23;;
4885;SDS011;2457;51.788;6.136;2022-07-10T09:56:07;4.43;;;1.10;;
4885;SDS011;2457;51.788;6.136;2022-07-10T09:58:41;4.70;;;1.53;;
4885;SDS011;2457;51.788;6.136;2022-07-10T10:01:05;4.40;;;1.13;;
4885;SDS011;2457;51.788;6.136;2022-07-10T10:03:38;3.53;;;1.10;;
4885;SDS011;2457;51.788;6.136;2022-07-10T10:06:03;4.27;;;1.20;;
4885;SDS011;2457;51.788;6.136;2022-07-10T10:08:44;3.20;;;1.27;;
4885;SDS011;2457;51.788;6.136;2022-07-10T10:11:08;3.43;;;1.10;;
4885;SDS011;2457;51.788;6.136;2022-07-10T10:13:37;5.00;;;1.30;;
4885;SDS011;2457;51.788;6.136;2022-07-10T10:16:05;9.80;;;1.30;;
4885;SDS011;2457;51.788;6.136;2022-07-10T10:18:34;5.67;;;1.40;;
4885;SDS011;2457;51.788;6.136;2022-07-10T10:21:03;5.27;;;1.30;;
4885;SDS011;2457;51.788;6.136;2022-07-10T10:23:32;4.60;;;1.37;;
4885;SDS011;2457;51.788;6.136;2022-07-10T10:25:59;5.03;;;1.67;;
4885;SDS011;2457;51.788;6.136;2022-07-10T10:28:27;5.40;;;1.30;;
4885;SDS011;2457;51.788;6.136;2022-07-10T10:30:59;10.00;;;3.57;;
4885;SDS011;2457;51.788;6.136;2022-07-10T10:36:02;4.53;;;1.27;;
4885;SDS011;2457;51.788;6.136;2022-07-10T10:41:33;8.10;;;1.90;;
4885;SDS011;2457;51.788;6.136;2022-07-10T10:47:00;6.43;;;2.20;;
4885;SDS011;2457;51.788;6.136;2022-07-10T10:49:07;4.33;;;1.90;;
4885;SDS011;2457;51.788;6.136;2022-07-10T10:54:20;12.43;;;5.53;;
4885;SDS011;2457;51.788;6.136;2022-07-10T10:57:33;14.20;;;2.73;;
4885;SDS011;2457;51.788;6.136;2022-07-10T11:04:38;3.27;;;1.13;;
4885;SDS011;2457;51.788;6.136;2022-07-10T11:07:06;5.40;;;2.13;;
4885;SDS011;2457;51.788;6.136;2022-07-10T11:09:33;6.10;;;1.80;;
4885;SDS011;2457;51.788;6.136;2022-07-10T11:12:10;8.43;;;3.30;;
4885;SDS011;2457;51.788;6.136;2022-07-10T11:14:40;7.33;;;3.00;;
4885;SDS011;2457;51.788;6.136;2022-07-10T11:17:08;7.50;;;3.80;;
4885;SDS011;2457;51.788;6.136;2022-07-10T11:19:36;4.93;;;1.77;;
4885;SDS011;2457;51.788;6.136;2022-07-10T11:24:51;8.13;;;2.40;;
4885;SDS011;2457;51.788;6.136;2022-07-10T11:29:58;4.70;;;1.30;;
4885;SDS011;2457;51.788;6.136;2022-07-10T11:32:25;6.87;;;1.60;;
4885;SDS011;2457;51.788;6.136;2022-07-10T11:34:53;3.35;;;1.30;;
4885;SDS011;2457;51.788;6.136;2022-07-10T11:37:20;3.83;;;1.50;;
4885;SDS011;2457;51.788;6.136;2022-07-10T11:39:49;11.17;;;2.00;;
4885;SDS011;2457;51.788;6.136;2022-07-10T11:42:17;4.23;;;1.40;;
4885;SDS011;2457;51.788;6.136;2022-07-10T11:44:44;8.60;;;2.30;;
4885;SDS011;2457;51.788;6.136;2022-07-10T11:47:11;7.80;;;3.70;;
4885;SDS011;2457;51.788;6.136;2022-07-10T11:49:45;12.97;;;6.33;;
4885;SDS011;2457;51.788;6.136;2022-07-10T11:52:12;7.90;;;3.00;;
4885;SDS011;2457;51.788;6.136;2022-07-10T11:54:39;13.00;;;1.37;;
4885;SDS011;2457;51.788;6.136;2022-07-10T11:57:08;9.80;;;3.63;;
4885;SDS011;2457;51.788;6.136;2022-07-10T11:59:36;14.43;;;5.37;;
4885;SDS011;2457;51.788;6.136;2022-07-10T12:02:04;11.30;;;5.63;;
4885;SDS011;2457;51.788;6.136;2022-07-10T12:04:42;12.00;;;5.20;;
4885;SDS011;2457;51.788;6.136;2022-07-10T12:07:09;18.73;;;10.23;;
4885;SDS011;2457;51.788;6.136;2022-07-10T12:09:36;8.60;;;4.33;;
4885;SDS011;2457;51.788;6.136;2022-07-10T12:12:05;4.57;;;1.70;;
4885;SDS011;2457;51.788;6.136;2022-07-10T12:14:35;4.00;;;1.70;;
4885;SDS011;2457;51.788;6.136;2022-07-10T12:17:03;3.97;;;1.30;;
4885;SDS011;2457;51.788;6.136;2022-07-10T12:19:32;6.80;;;3.10;;
4885;SDS011;2457;51.788;6.136;2022-07-10T12:22:00;7.03;;;1.60;;
4885;SDS011;2457;51.788;6.136;2022-07-10T12:24:28;5.83;;;1.93;;
4885;SDS011;2457;51.788;6.136;2022-07-10T12:26:55;5.20;;;1.73;;
4885;SDS011;2457;51.788;6.136;2022-07-10T12:29:23;6.20;;;1.50;;
4885;SDS011;2457;51.788;6.136;2022-07-10T12:31:54;4.90;;;1.33;;
4885;SDS011;2457;51.788;6.136;2022-07-10T12:37:12;3.47;;;1.30;;
4885;SDS011;2457;51.788;6.136;2022-07-10T12:39:46;4.60;;;1.10;;
4885;SDS011;2457;51.788;6.136;2022-07-10T12:42:22;4.80;;;1.50;;
4885;SDS011;2457;51.788;6.136;2022-07-10T12:44:43;3.90;;;1.27;;
4885;SDS011;2457;51.788;6.136;2022-07-10T12:47:13;4.37;;;1.40;;
4885;SDS011;2457;51.788;6.136;2022-07-10T12:52:27;6.80;;;1.67;;
4885;SDS011;2457;51.788;6.136;2022-07-10T12:57:46;3.20;;;1.30;;
4885;SDS011;2457;51.788;6.136;2022-07-10T13:00:19;3.80;;;1.33;;
4885;SDS011;2457;51.788;6.136;2022-07-10T13:02:42;3.40;;;1.20;;
4885;SDS011;2457;51.788;6.136;2022-07-10T13:05:10;8.53;;;1.60;;
4885;SDS011;2457;51.788;6.136;2022-07-10T13:07:37;5.80;;;1.57;;
4885;SDS011;2457;51.788;6.136;2022-07-10T13:10:06;8.33;;;1.40;;
4885;SDS011;2457;51.788;6.136;2022-07-10T13:12:33;4.60;;;1.40;;
4885;SDS011;2457;51.788;6.136;2022-07-10T13:15:02;3.63;;;1.43;;
4885;SDS011;2457;51.788;6.136;2022-07-10T13:17:29;4.20;;;1.63;;
4885;SDS011;2457;51.788;6.136;2022-07-10T13:19:57;3.87;;;1.30;;
4885;SDS011;2457;51.788;6.136;2022-07-10T13:22:24;3.90;;;1.30;;
4885;SDS011;2457;51.788;6.136;2022-07-10T13:24:51;6.50;;;1.80;;
4885;SDS011;2457;51.788;6.136;2022-07-10T13:27:19;5.33;;;1.13;;
4885;SDS011;2457;51.788;6.136;2022-07-10T13:29:46;6.10;;;1.70;;
4885;SDS011;2457;51.788;6.136;2022-07-10T13:32:14;5.57;;;1.33;;
4885;SDS011;2457;51.788;6.136;2022-07-10T13:34:42;3.83;;;1.43;;
4885;SDS011;2457;51.788;6.136;2022-07-10T13:37:09;4.13;;;1.50;;
4885;SDS011;2457;51.788;6.136;2022-07-10T13:39:38;4.80;;;1.67;;
4885;SDS011;2457;51.788;6.136;2022-07-10T13:42:05;3.90;;;1.10;;
4885;SDS011;2457;51.788;6.136;2022-07-10T13:44:32;3.67;;;1.10;;
4885;SDS011;2457;51.788;6.136;2022-07-10T13:47:00;3.83;;;1.20;;
4885;SDS011;2457;51.788;6.136;2022-07-10T13:49:27;4.93;;;1.70;;
4885;SDS011;2457;51.788;6.136;2022-07-10T13:51:54;3.70;;;1.10;;
4885;SDS011;2457;51.788;6.136;2022-07-10T13:54:21;3.10;;;1.10;;
4885;SDS011;2457;51.788;6.136;2022-07-10T13:56:49;3.30;;;1.00;;
4885;SDS011;2457;51.788;6.136;2022-07-10T13:59:17;4.70;;;1.20;;
4885;SDS011;2457;51.788;6.136;2022-07-10T14:01:44;3.93;;;1.20;;
4885;SDS011;2457;51.788;6.136;2022-07-10T14:04:11;2.80;;;1.10;;
4885;SDS011;2457;51.788;6.136;2022-07-10T14:06:38;3.77;;;1.50;;
4885;SDS011;2457;51.788;6.136;2022-07-10T14:09:05;4.60;;;1.00;;
4885;SDS011;2457;51.788;6.136;2022-07-10T14:11:33;5.03;;;1.30;;
4885;SDS011;2457;51.788;6.136;2022-07-10T14:14:00;5.33;;;1.63;;
4885;SDS011;2457;51.788;6.136;2022-07-10T14:16:27;2.87;;;1.10;;
4885;SDS011;2457;51.788;6.136;2022-07-10T14:18:55;3.30;;;1.30;;
4885;SDS011;2457;51.788;6.136;2022-07-10T14:21:22;7.70;;;1.30;;
4885;SDS011;2457;51.788;6.136;2022-07-10T14:23:51;8.07;;;1.43;;
4885;SDS011;2457;51.788;6.136;2022-07-10T14:26:18;6.30;;;1.50;;
4885;SDS011;2457;51.788;6.136;2022-07-10T14:28:45;5.73;;;1.70;;
4885;SDS011;2457;51.788;6.136;2022-07-10T14:31:13;4.33;;;1.40;;
4885;SDS011;2457;51.788;6.136;2022-07-10T14:33:42;4.33;;;1.40;;
4885;SDS011;2457;51.788;6.136;2022-07-10T14:36:09;3.97;;;1.20;;
4885;SDS011;2457;51.788;6.136;2022-07-10T14:38:37;5.50;;;1.50;;
4885;SDS011;2457;51.788;6.136;2022-07-10T14:41:04;3.10;;;1.23;;
4885;SDS011;2457;51.788;6.136;2022-07-10T14:43:32;3.43;;;1.67;;
4885;SDS011;2457;51.788;6.136;2022-07-10T14:45:59;3.73;;;1.53;;
4885;SDS011;2457;51.788;6.136;2022-07-10T14:48:29;6.80;;;1.60;;
4885;SDS011;2457;51.788;6.136;2022-07-10T14:53:43;4.73;;;1.20;;
4885;SDS011;2457;51.788;6.136;2022-07-10T14:56:12;3.83;;;1.40;;
4885;SDS011;2457;51.788;6.136;2022-07-10T14:58:42;4.87;;;1.60;;
4885;SDS011;2457;51.788;6.136;2022-07-10T15:01:09;4.00;;;1.27;;
4885;SDS011;2457;51.788;6.136;2022-07-10T15:03:36;3.53;;;1.20;;
4885;SDS011;2457;51.788;6.136;2022-07-10T15:06:04;4.97;;;1.50;;
4885;SDS011;2457;51.788;6.136;2022-07-10T15:08:31;8.77;;;1.50;;
4885;SDS011;2457;51.788;6.136;2022-07-10T15:11:00;3.80;;;1.30;;
4885;SDS011;2457;51.788;6.136;2022-07-10T15:13:28;3.17;;;1.40;;
4885;SDS011;2457;51.788;6.136;2022-07-10T15:15:55;3.80;;;1.50;;
4885;SDS011;2457;51.788;6.136;2022-07-10T15:18:22;4.77;;;1.47;;
4885;SDS011;2457;51.788;6.136;2022-07-10T15:20:50;4.83;;;1.50;;
4885;SDS011;2457;51.788;6.136;2022-07-10T15:23:17;6.00;;;1.30;;
4885;SDS011;2457;51.788;6.136;2022-07-10T15:25:45;5.03;;;1.40;;
4885;SDS011;2457;51.788;6.136;2022-07-10T15:28:12;2.90;;;1.20;;
4885;SDS011;2457;51.788;6.136;2022-07-10T15:30:39;4.00;;;1.20;;
4885;SDS011;2457;51.788;6.136;2022-07-10T15:33:08;4.10;;;1.17;;
4885;SDS011;2457;51.788;6.136;2022-07-10T15:35:35;5.40;;;1.60;;
4885;SDS011;2457;51.788;6.136;2022-07-10T15:38:03;4.17;;;1.20;;
4885;SDS011;2457;51.788;6.136;2022-07-10T15:40:30;3.30;;;1.30;;
4885;SDS011;2457;51.788;6.136;2022-07-10T15:42:57;4.90;;;1.50;;
4885;SDS011;2457;51.788;6.136;2022-07-10T15:45:25;4.33;;;1.30;;
4885;SDS011;2457;51.788;6.136;2022-07-10T15:47:53;3.33;;;1.20;;
4885;SDS011;2457;51.788;6.136;2022-07-10T15:50:20;5.27;;;1.20;;
4885;SDS011;2457;51.788;6.136;2022-07-10T15:52:47;5.20;;;1.30;;
4885;SDS011;2457;51.788;6.136;2022-07-10T15:55:15;3.47;;;1.40;;
4885;SDS011;2457;51.788;6.136;2022-07-10T15:57:42;4.03;;;1.30;;
4885;SDS011;2457;51.788;6.136;2022-07-10T16:00:10;4.67;;;1.40;;
4885;SDS011;2457;51.788;6.136;2022-07-10T16:02:38;5.03;;;1.43;;